createdAt,value
2022-11-04T00:01:53.051Z,99990.66
2022-11-04T00:04:23.120Z,99978.97
2022-11-04T00:06:51.717Z,99974.75
2022-11-04T00:09:24.544Z,99960.50
2022-11-04T00:12:10.901Z,99951.38
2022-11-04T00:14:38.838Z,99948.81
2022-11-04T00:17:25.402Z,99942.53
2022-11-04T00:20:13.240Z,99936.13
2022-11-04T00:23:01.045Z,99920.00
2022-11-04T00:25:47.420Z,99904.25
2022-11-04T00:28:36.628Z,99905.28
2022-11-04T00:31:27.574Z,99894.25
2022-11-04T00:33:58.016Z,99893.47
2022-11-04T00:36:26.328Z,99885.88
2022-11-04T00:38:54.347Z,99885.19
2022-11-04T00:41:29.135Z,99885.63
2022-11-04T00:43:59.800Z,99875.06
2022-11-04T00:46:29.471Z,99858.94
2022-11-04T00:48:57.423Z,99855.25
2022-11-04T00:51:25.574Z,99850.50
2022-11-04T00:53:53.921Z,99856.31
2022-11-04T00:56:22.037Z,99843.31
2022-11-04T00:58:50.488Z,99841.28
2022-11-04T01:01:20.142Z,99843.31
2022-11-04T01:03:50.020Z,99839.28
2022-11-04T01:06:19.480Z,99827.97
2022-11-04T01:08:48.113Z,99837.69
2022-11-04T01:11:16.806Z,99827.72
2022-11-04T01:13:44.661Z,99819.72
2022-11-04T01:16:13.288Z,99814.31
2022-11-04T01:18:41.917Z,99812.72
2022-11-04T01:21:13.334Z,99803.44
2022-11-04T01:23:42.798Z,99799.06
2022-11-04T01:26:22.393Z,99791.50
2022-11-04T01:28:52.534Z,99783.03
2022-11-04T01:31:22.714Z,99782.44
2022-11-04T01:33:52.084Z,99778.53
2022-11-04T01:36:21.118Z,99776.72
2022-11-04T01:38:49.363Z,99771.31
2022-11-04T01:41:23.395Z,99768.56
2022-11-04T01:43:54.209Z,99769.19
2022-11-04T01:46:57.259Z,99758.34
2022-11-04T01:49:39.171Z,99757.97
2022-11-04T01:52:20.175Z,99752.41
2022-11-04T01:54:50.802Z,99747.00
2022-11-04T01:57:26.048Z,99744.59
2022-11-04T01:59:53.937Z,99727.22
2022-11-04T02:02:24.730Z,99728.94
2022-11-04T02:04:52.988Z,99723.44
2022-11-04T02:07:21.762Z,99709.97
2022-11-04T02:09:49.901Z,99701.81
2022-11-04T02:12:36.144Z,99681.22
2022-11-04T02:15:04.453Z,99669.34
2022-11-04T02:18:07.468Z,99670.97
2022-11-04T02:21:05.929Z,99667.06
2022-11-04T02:24:01.635Z,99656.22
2022-11-04T02:26:50.890Z,99642.28
2022-11-04T02:29:43.386Z,99648.34
2022-11-04T02:32:14.064Z,99643.63
2022-11-04T02:35:07.688Z,99636.81
2022-11-04T02:37:51.456Z,99634.22
2022-11-04T02:41:02.724Z,99625.59
2022-11-04T02:43:48.716Z,99617.81
2022-11-04T02:46:31.468Z,99610.91
2022-11-04T02:49:11.091Z,99607.22
2022-11-04T02:51:48.734Z,99597.56
2022-11-04T02:54:33.504Z,99592.28
2022-11-04T02:57:04.340Z,99594.03
2022-11-04T02:59:48.149Z,99584.91
2022-11-04T03:02:33.416Z,99577.78
2022-11-04T03:05:04.513Z,99570.06
2022-11-04T03:07:36.821Z,99555.69
2022-11-04T03:10:11.669Z,99550.06
2022-11-04T03:13:01.859Z,99545.44
2022-11-04T03:15:34.402Z,99537.16
2022-11-04T03:18:23.684Z,99536.38
2022-11-04T03:20:53.375Z,99521.19
2022-11-04T03:23:21.177Z,99507.38
2022-11-04T03:25:54.690Z,99515.44
2022-11-04T03:28:30.344Z,99498.41
2022-11-04T03:31:03.367Z,99495.75
2022-11-04T03:33:46.461Z,99503.13
2022-11-04T03:36:14.920Z,99506.69
2022-11-04T03:38:43.051Z,99504.03
2022-11-04T03:41:20.081Z,99510.38
2022-11-04T03:43:48.076Z,99501.41
2022-11-04T03:46:16.097Z,99495.19
2022-11-04T03:48:46.800Z,99494.72
2022-11-04T03:51:14.806Z,99497.44
2022-11-04T03:53:42.929Z,99497.34
2022-11-04T03:56:28.430Z,99490.78
2022-11-04T03:58:59.155Z,99490.53
2022-11-04T04:02:01.751Z,99488.84
2022-11-04T04:04:35.184Z,99482.41
2022-11-04T04:07:13.988Z,99489.91
2022-11-04T04:09:49.911Z,99482.19
2022-11-04T04:12:40.998Z,99486.69
2022-11-04T04:15:18.600Z,99481.59
2022-11-04T04:17:55.716Z,99482.41
2022-11-04T04:20:27.604Z,99488.38
2022-11-04T04:23:40.356Z,99484.13
2022-11-04T04:26:28.157Z,99484.34
2022-11-04T04:28:57.825Z,99486.22
2022-11-04T04:31:45.832Z,99480.78
2022-11-04T04:34:14.589Z,99463.41
2022-11-04T04:37:15.861Z,99464.13
2022-11-04T04:40:06.945Z,99466.16
2022-11-04T04:42:54.128Z,99462.03
2022-11-04T04:45:27.082Z,99456.63
2022-11-04T04:47:54.964Z,99459.47
2022-11-04T04:50:23.450Z,99455.31
2022-11-04T04:52:54.784Z,99446.72
2022-11-04T04:55:22.737Z,99443.91
2022-11-04T04:57:51.012Z,99439.47
2022-11-04T05:00:21.279Z,99442.25
2022-11-04T05:02:49.898Z,99430.97
2022-11-04T05:05:18.598Z,99426.03
2022-11-04T05:07:46.637Z,99440.31
2022-11-04T05:10:16.288Z,99438.16
2022-11-04T05:13:02.933Z,99434.00
2022-11-04T05:15:31.629Z,99425.94
2022-11-04T05:18:01.457Z,99423.97
2022-11-04T05:20:30.535Z,99425.94
2022-11-04T05:22:58.416Z,99426.50
2022-11-04T05:25:26.294Z,99420.06
2022-11-04T05:27:54.062Z,99416.47
2022-11-04T05:30:21.984Z,99405.75
2022-11-04T05:32:49.883Z,99418.59
2022-11-04T05:35:17.752Z,99426.09
2022-11-04T05:37:45.533Z,99419.28
2022-11-04T05:40:14.046Z,99414.00
2022-11-04T05:42:42.339Z,99404.22
2022-11-04T05:45:10.550Z,99401.06
2022-11-04T05:47:38.511Z,99405.31
2022-11-04T05:50:06.928Z,99397.03
2022-11-04T05:52:34.901Z,99391.06
2022-11-04T05:55:02.643Z,99391.25
2022-11-04T05:57:31.141Z,99398.63
2022-11-04T05:59:59.487Z,99397.50
2022-11-04T06:02:27.571Z,99393.59
2022-11-04T06:04:55.609Z,99387.28
2022-11-04T06:07:23.412Z,99403.78
2022-11-04T06:09:51.222Z,99390.09
2022-11-04T06:12:19.305Z,99383.69
2022-11-04T06:14:47.223Z,99392.09
2022-11-04T06:17:20.396Z,99394.78
2022-11-04T06:19:49.467Z,99401.81
2022-11-04T06:22:19.766Z,99417.69
2022-11-04T06:24:47.758Z,99420.53
2022-11-04T06:27:23.167Z,99417.16
2022-11-04T06:29:52.863Z,99413.53
2022-11-04T06:32:20.722Z,99397.97
2022-11-04T06:34:48.529Z,99399.44
2022-11-04T06:37:16.364Z,99406.81
2022-11-04T06:39:44.402Z,99410.00
2022-11-04T06:42:12.236Z,99423.69
2022-11-04T06:44:40.118Z,99435.25
2022-11-04T06:47:08.338Z,99440.91
2022-11-04T06:49:36.177Z,99445.84
2022-11-04T06:52:04.258Z,99460.47
2022-11-04T06:54:32.205Z,99465.75
2022-11-04T06:57:00.060Z,99464.81
2022-11-04T06:59:27.868Z,99457.47
2022-11-04T07:01:55.906Z,99477.72
2022-11-04T07:04:23.827Z,99491.38
2022-11-04T07:06:51.700Z,99496.41
2022-11-04T07:09:19.934Z,99495.22
2022-11-04T07:11:48.119Z,99494.50
2022-11-04T07:14:16.025Z,99509.06
2022-11-04T07:16:43.850Z,99514.88
2022-11-04T07:19:11.646Z,99515.81
2022-11-04T07:21:39.468Z,99512.25
2022-11-04T07:24:07.632Z,99513.41
2022-11-04T07:26:35.469Z,99530.59
2022-11-04T07:29:03.535Z,99555.47
2022-11-04T07:31:31.374Z,99572.44
2022-11-04T07:33:59.314Z,99583.19
2022-11-04T07:36:27.130Z,99574.94
2022-11-04T07:38:55.092Z,99574.19
2022-11-04T07:41:23.101Z,99580.50
2022-11-04T07:43:52.243Z,99585.69
2022-11-04T07:46:23.018Z,99577.44
2022-11-04T07:48:50.943Z,99539.44
2022-11-04T07:51:21.476Z,99563.53
2022-11-04T07:53:50.787Z,99552.47
2022-11-04T07:56:24.098Z,99554.91
2022-11-04T07:58:52.730Z,99557.75
2022-11-04T08:01:23.573Z,99505.44
2022-11-04T08:03:51.931Z,99452.09
2022-11-04T08:06:20.917Z,99412.00
2022-11-04T08:08:48.969Z,99463.91
2022-11-04T08:11:19.987Z,99493.50
2022-11-04T08:13:48.044Z,99492.19
2022-11-04T08:16:19.153Z,99488.06
2022-11-04T08:18:48.795Z,99477.94
2022-11-04T08:21:16.894Z,99470.06
2022-11-04T08:23:46.271Z,99486.56
2022-11-04T08:26:18.773Z,99506.06
2022-11-04T08:28:46.961Z,99516.00
2022-11-04T08:31:18.859Z,99524.13
2022-11-04T08:33:48.279Z,99519.91
2022-11-04T08:36:21.807Z,99528.50
2022-11-04T08:38:50.125Z,99520.94
2022-11-04T08:41:20.115Z,99531.84
2022-11-04T08:43:48.383Z,99543.03
2022-11-04T08:46:16.349Z,99541.19
2022-11-04T08:48:45.049Z,99527.50
2022-11-04T08:51:16.287Z,99515.59
2022-11-04T08:53:44.309Z,99533.22
2022-11-04T08:56:16.453Z,99512.91
2022-11-04T08:58:44.635Z,99527.09
2022-11-04T09:01:12.969Z,99515.56
2022-11-04T09:03:42.126Z,99510.16
2022-11-04T09:06:13.915Z,99520.84
2022-11-04T09:08:43.594Z,99528.88
2022-11-04T09:11:13.769Z,99530.38
2022-11-04T09:13:41.942Z,99530.59
2022-11-04T09:16:11.877Z,99521.72
2022-11-04T09:18:40.204Z,99520.47
2022-11-04T09:21:09.837Z,99518.22
2022-11-04T09:23:38.507Z,99522.69
2022-11-04T09:26:12.438Z,99525.78
2022-11-04T09:28:41.064Z,99521.38
2022-11-04T09:31:15.143Z,99528.16
2022-11-04T09:33:42.978Z,99527.84
2022-11-04T09:36:12.149Z,99517.88
2022-11-04T09:38:41.641Z,99529.22
2022-11-04T09:41:43.247Z,99530.81
2022-11-04T09:44:47.971Z,99528.50
2022-11-04T09:47:22.872Z,99523.84
2022-11-04T09:49:55.317Z,99530.91
2022-11-04T09:52:38.361Z,99523.09
2022-11-04T09:55:20.685Z,99527.47
2022-11-04T09:57:58.677Z,99527.03
2022-11-04T10:00:30.830Z,99533.69
2022-11-04T10:03:36.648Z,99542.28
2022-11-04T10:06:11.479Z,99535.28
2022-11-04T10:09:05.663Z,99535.16
2022-11-04T10:12:01.544Z,99543.72
2022-11-04T10:15:07.844Z,99541.19
2022-11-04T10:17:43.515Z,99546.84
2022-11-04T10:20:41.070Z,99545.47
2022-11-04T10:23:34.069Z,99545.22
2022-11-04T10:26:28.161Z,99545.22
2022-11-04T10:29:03.087Z,99542.34
2022-11-04T10:31:30.979Z,99533.63
2022-11-04T10:34:03.268Z,99535.09
2022-11-04T10:36:31.907Z,99543.28
2022-11-04T10:39:03.638Z,99538.19
2022-11-04T10:41:38.875Z,99538.41
2022-11-04T10:44:09.191Z,99531.72
2022-11-04T10:47:01.729Z,99533.88
2022-11-04T10:52:51.006Z,99533.22
2022-11-04T10:55:24.942Z,99531.63
2022-11-04T10:57:57.724Z,99530.03
2022-11-04T11:00:40.181Z,99542.13
2022-11-04T11:03:34.547Z,99533.94
2022-11-04T11:06:35.946Z,99530.38
2022-11-04T11:09:18.886Z,99546.13
2022-11-04T11:11:50.508Z,99532.66
2022-11-04T11:14:31.162Z,99535.97
2022-11-04T11:17:17.286Z,99536.94
2022-11-04T11:19:51.012Z,99525.44
2022-11-04T11:22:36.392Z,99533.84
2022-11-04T11:25:30.298Z,99530.16
2022-11-04T11:28:02.391Z,99526.03
2022-11-04T11:30:37.184Z,99526.16
2022-11-04T11:33:14.322Z,99512.72
2022-11-04T11:35:56.696Z,99520.69
2022-11-04T11:38:34.917Z,99521.69
2022-11-04T11:41:28.983Z,99509.31
2022-11-04T11:44:00.864Z,99511.06
2022-11-04T11:46:32.063Z,99498.19
2022-11-04T11:49:02.503Z,99501.16
2022-11-04T11:51:38.721Z,99507.03
2022-11-04T11:54:37.818Z,99515.25
2022-11-04T11:57:25.594Z,99527.44
2022-11-04T12:03:18.217Z,99506.56
2022-11-04T12:11:55.992Z,99507.47
2022-11-04T12:14:33.093Z,99506.50
2022-11-04T12:17:03.928Z,99508.28
2022-11-04T12:19:55.798Z,99502.44
2022-11-04T12:22:35.594Z,99501.53
2022-11-04T12:25:15.151Z,99500.72
2022-11-04T12:28:10.807Z,99503.44
2022-11-04T12:30:59.336Z,99507.81
2022-11-04T12:33:59.726Z,99517.38
2022-11-04T12:36:33.609Z,99523.94
2022-11-04T12:39:35.520Z,99520.22
2022-11-04T12:42:31.422Z,99513.84
2022-11-04T12:45:09.403Z,99516.03
2022-11-04T12:47:44.210Z,99519.88
2022-11-04T12:50:38.434Z,99513.13
2022-11-04T12:53:44.981Z,99521.59
2022-11-04T12:56:19.500Z,99519.28
2022-11-04T12:59:20.594Z,99527.00
2022-11-04T13:01:52.780Z,99527.16
2022-11-04T13:04:25.642Z,99527.63
2022-11-04T13:06:56.892Z,99524.31
2022-11-04T13:09:44.486Z,99529.22
2022-11-04T13:12:22.443Z,99521.75
2022-11-04T13:14:57.559Z,99529.78
2022-11-04T13:17:38.133Z,99526.25
2022-11-04T13:20:14.215Z,99520.03
2022-11-04T13:22:51.531Z,99511.75
2022-11-04T13:25:28.537Z,99516.44
2022-11-04T13:27:58.285Z,99507.47
2022-11-04T13:30:38.120Z,99507.31
2022-11-04T13:33:20.965Z,99499.44
2022-11-04T13:36:07.231Z,99505.50
2022-11-04T13:38:40.641Z,99489.47
2022-11-04T13:41:22.186Z,99479.50
2022-11-04T13:44:13.300Z,99471.38
2022-11-04T13:46:49.554Z,99463.63
2022-11-04T13:49:30.662Z,99465.66
2022-11-04T13:52:11.118Z,99454.16
2022-11-04T13:54:53.728Z,99465.56
2022-11-04T13:57:30.681Z,99478.72
2022-11-04T14:00:13.898Z,99480.16
2022-11-04T14:02:49.397Z,99473.72
2022-11-04T14:05:34.781Z,99476.91
2022-11-04T14:08:02.601Z,99480.59
2022-11-04T14:10:48.695Z,99482.63
2022-11-04T14:13:33.640Z,99483.78
2022-11-04T14:16:41.395Z,99482.19
2022-11-04T14:19:57.651Z,99482.34
2022-11-04T14:22:37.855Z,99478.28
2022-11-04T14:25:24.280Z,99478.19
2022-11-04T14:27:55.419Z,99471.19
2022-11-04T14:30:38.392Z,99467.56
2022-11-04T14:33:17.239Z,99466.00
2022-11-04T14:35:45.458Z,99459.53
2022-11-04T14:38:34.675Z,99473.13
2022-11-04T14:41:20.768Z,99461.66
2022-11-04T14:43:50.447Z,99447.63
2022-11-04T14:46:25.646Z,99444.59
2022-11-04T14:48:56.063Z,99439.59
2022-11-04T14:51:31.146Z,99451.22
2022-11-04T14:54:30.535Z,99436.03
2022-11-04T14:57:27.797Z,99434.25
2022-11-04T15:00:00.272Z,99423.69
2022-11-04T15:02:31.641Z,99433.72
2022-11-04T15:05:01.495Z,99436.56
2022-11-04T15:11:40.813Z,99441.00
2022-11-04T15:14:22.069Z,99438.50
2022-11-04T15:16:56.608Z,99436.91
2022-11-04T15:19:43.351Z,99439.66
2022-11-04T15:22:14.304Z,99438.47
2022-11-04T15:24:43.801Z,99444.84
2022-11-04T15:27:15.630Z,99436.31
2022-11-04T15:30:01.271Z,99429.44
2022-11-04T15:32:29.605Z,99436.47
2022-11-04T15:34:58.219Z,99423.56
2022-11-04T15:37:29.095Z,99411.75
2022-11-04T15:39:58.518Z,99423.25
2022-11-04T15:42:45.946Z,99423.72
2022-11-04T15:45:22.792Z,99417.69
2022-11-04T15:48:30.542Z,99406.44
2022-11-04T15:51:18.439Z,99406.53
2022-11-04T15:54:00.090Z,99420.38
2022-11-04T15:56:32.433Z,99431.13
2022-11-04T15:59:01.634Z,99433.50
2022-11-04T16:01:29.806Z,99420.66
2022-11-04T16:04:00.621Z,99431.00
2022-11-04T16:06:34.952Z,99433.91
2022-11-04T16:09:28.677Z,99427.91
2022-11-04T16:12:15.707Z,99432.41
2022-11-04T16:14:49.266Z,99444.03
2022-11-04T16:17:17.312Z,99438.16
2022-11-04T16:19:52.427Z,99448.03
2022-11-04T16:22:39.809Z,99450.00
2022-11-04T16:25:20.177Z,99447.69
2022-11-04T16:27:48.482Z,99452.59
2022-11-04T16:30:16.402Z,99457.50
2022-11-04T16:32:49.761Z,99448.22
2022-11-04T16:35:39.152Z,99461.19
2022-11-04T16:38:16.580Z,99465.38
2022-11-04T16:41:09.951Z,99465.16
2022-11-04T16:43:42.962Z,99473.09
2022-11-04T16:46:13.102Z,99456.63
2022-11-04T16:48:41.563Z,99458.25
2022-11-04T16:51:20.284Z,99468.41
2022-11-04T16:53:50.077Z,99475.44
2022-11-04T16:56:21.401Z,99474.69
2022-11-04T16:58:49.460Z,99480.59
2022-11-04T17:01:19.454Z,99488.53
2022-11-04T17:03:51.535Z,99491.16
2022-11-04T17:06:20.245Z,99500.06
2022-11-04T17:08:48.197Z,99497.97
2022-11-04T17:11:16.013Z,99500.88
2022-11-04T17:13:43.794Z,99501.13
2022-11-04T17:16:16.029Z,99510.19
2022-11-04T17:18:43.819Z,99521.22
2022-11-04T17:21:15.454Z,99524.97
2022-11-04T17:23:44.710Z,99512.69
2022-11-04T17:26:15.219Z,99521.94
2022-11-04T17:28:43.219Z,99529.09
2022-11-04T17:31:18.850Z,99527.50
2022-11-04T17:33:47.557Z,99534.47
2022-11-04T17:36:22.643Z,99541.41
2022-11-04T17:38:51.261Z,99539.31
2022-11-04T17:41:37.920Z,99552.75
2022-11-04T17:44:06.026Z,99565.22
2022-11-04T17:46:35.986Z,99569.94
2022-11-04T17:49:20.019Z,99578.81
2022-11-04T17:51:53.839Z,99579.13
2022-11-04T17:54:22.591Z,99598.06
2022-11-04T17:56:50.310Z,99586.88
2022-11-04T17:59:18.777Z,99594.47
2022-11-04T18:01:47.039Z,99596.59
2022-11-04T18:04:20.421Z,99601.91
2022-11-04T18:06:49.216Z,99611.63
2022-11-04T18:09:19.027Z,99619.38
2022-11-04T18:12:07.416Z,99610.63
2022-11-04T18:14:35.218Z,99613.38
2022-11-04T18:17:03.301Z,99609.00
2022-11-04T18:19:31.453Z,99624.16
2022-11-04T18:22:02.069Z,99625.47
2022-11-04T18:24:29.959Z,99625.47
2022-11-04T18:27:00.975Z,99625.59
2022-11-04T18:29:28.864Z,99626.72
2022-11-04T18:31:56.788Z,99639.34
2022-11-04T18:34:24.730Z,99639.34
2022-11-04T18:36:53.077Z,99637.38
2022-11-04T18:39:22.423Z,99659.66
2022-11-04T18:41:50.169Z,99657.06
2022-11-04T18:44:21.243Z,99650.88
2022-11-04T18:46:49.629Z,99656.22
2022-11-04T18:49:18.205Z,99651.53
2022-11-04T18:51:46.226Z,99657.81
2022-11-04T18:54:14.863Z,99663.59
2022-11-04T18:56:46.003Z,99655.69
2022-11-04T18:59:15.338Z,99665.38
2022-11-04T19:01:43.992Z,99664.28
2022-11-04T19:04:13.384Z,99660.69
2022-11-04T19:06:46.043Z,99670.34
2022-11-04T19:09:45.492Z,99664.50
2022-11-04T19:12:24.057Z,99671.91
2022-11-04T19:14:54.576Z,99673.06
2022-11-04T19:17:23.369Z,99669.25
2022-11-04T19:19:55.969Z,99677.66
2022-11-04T19:22:25.292Z,99668.91
2022-11-04T19:24:53.933Z,99671.69
2022-11-04T19:27:23.314Z,99677.41
2022-11-04T19:29:52.351Z,99675.06
2022-11-04T19:32:21.933Z,99680.88
2022-11-04T19:34:50.444Z,99683.78
2022-11-04T19:37:19.127Z,99696.00
2022-11-04T19:40:20.478Z,99689.59
2022-11-04T19:43:07.069Z,99693.94
2022-11-04T19:45:38.480Z,99696.66
2022-11-04T19:48:06.578Z,99706.94
2022-11-04T19:50:39.542Z,99697.22
2022-11-04T19:53:08.035Z,99716.31
2022-11-04T19:55:36.498Z,99714.81
2022-11-04T19:58:04.365Z,99724.28
2022-11-04T20:00:33.115Z,99726.72
2022-11-04T20:03:01.624Z,99734.25
2022-11-04T20:05:29.720Z,99735.38
2022-11-04T20:08:00.517Z,99735.25
2022-11-04T20:10:36.276Z,99739.69
2022-11-04T20:13:22.893Z,99732.78
2022-11-04T20:15:51.498Z,99733.25
2022-11-04T20:18:21.448Z,99742.13
2022-11-04T20:20:49.424Z,99747.81
2022-11-04T20:23:17.696Z,99737.88
2022-11-04T20:25:45.540Z,99729.34
2022-11-04T20:28:14.061Z,99730.16
2022-11-04T20:30:43.453Z,99726.66
2022-11-04T20:33:12.069Z,99738.09
2022-11-04T20:35:41.064Z,99731.88
2022-11-04T20:38:09.383Z,99726.75
2022-11-04T20:40:37.657Z,99730.75
2022-11-04T20:43:05.564Z,99745.88
2022-11-04T20:45:36.326Z,99740.31
2022-11-04T20:48:05.157Z,99748.25
2022-11-04T20:50:34.154Z,99756.47
2022-11-04T20:53:02.586Z,99752.59
2022-11-04T20:55:30.757Z,99755.63
2022-11-04T20:57:59.005Z,99756.66
2022-11-04T21:00:27.803Z,99760.44
2022-11-04T21:02:57.187Z,99768.44
2022-11-04T21:05:27.435Z,99774.81
2022-11-04T21:07:55.477Z,99775.13
2022-11-04T21:10:23.668Z,99778.88
2022-11-04T21:12:52.565Z,99779.59
2022-11-04T21:15:39.457Z,99788.22
2022-11-04T21:18:09.151Z,99789.13
2022-11-04T21:20:42.470Z,99794.00
2022-11-04T21:23:11.878Z,99790.84
2022-11-04T21:25:40.705Z,99771.38
2022-11-04T21:28:09.313Z,99780.00
2022-11-04T21:30:39.663Z,99789.03
2022-11-04T21:33:07.885Z,99796.22
2022-11-04T21:35:39.678Z,99798.47
2022-11-04T21:42:19.736Z,99820.38
2022-11-04T21:44:47.572Z,99828.91
2022-11-04T21:47:15.410Z,99828.78
2022-11-04T21:49:43.258Z,99811.97
2022-11-04T21:52:11.083Z,99812.75
2022-11-04T21:54:38.946Z,99803.94
2022-11-04T21:57:07.032Z,99814.00
2022-11-04T21:59:34.974Z,99819.56
2022-11-04T22:02:02.925Z,99822.81
2022-11-04T22:04:31.079Z,99828.59
2022-11-04T22:06:59.035Z,99817.72
2022-11-04T22:09:27.000Z,99816.31
2022-11-04T22:11:55.171Z,99823.59
2022-11-04T22:14:28.489Z,99802.13
2022-11-04T22:16:56.756Z,99818.34
2022-11-04T22:19:24.652Z,99815.69
2022-11-04T22:21:52.489Z,99813.28
2022-11-04T22:24:20.375Z,99825.44
2022-11-04T22:26:50.394Z,99824.72
2022-11-04T22:29:18.332Z,99809.38
2022-11-04T22:31:46.120Z,99817.69
2022-11-04T22:34:13.928Z,99809.34
2022-11-04T22:36:41.877Z,99801.03
2022-11-04T22:39:16.447Z,99810.34
2022-11-04T22:41:46.536Z,99809.31
2022-11-04T22:44:15.563Z,99796.84
2022-11-04T22:46:43.674Z,99819.34
2022-11-04T22:49:11.536Z,99829.69
2022-11-04T22:51:39.308Z,99819.22
2022-11-04T22:54:08.850Z,99818.81
2022-11-04T22:56:37.380Z,99829.19
2022-11-04T22:59:05.405Z,99830.56
2022-11-04T23:01:34.052Z,99840.66
2022-11-04T23:04:02.237Z,99845.50
2022-11-04T23:06:30.603Z,99847.84
2022-11-04T23:09:00.423Z,99850.38
2022-11-04T23:11:48.965Z,99849.88
2022-11-04T23:14:38.236Z,99852.25
2022-11-04T23:17:38.863Z,99856.75
2022-11-04T23:20:12.835Z,99850.19
2022-11-04T23:22:59.345Z,99862.59
2022-11-04T23:25:28.091Z,99857.94
2022-11-04T23:28:14.606Z,99861.03
2022-11-04T23:30:45.670Z,99868.75
2022-11-04T23:33:15.708Z,99863.41
2022-11-04T23:36:10.822Z,99861.78
2022-11-04T23:38:38.519Z,99865.25
2022-11-04T23:41:25.941Z,99864.84
2022-11-04T23:43:53.844Z,99875.47
2022-11-04T23:46:43.424Z,99883.88
2022-11-04T23:49:14.949Z,99894.44
2022-11-04T23:52:01.431Z,99892.00
2022-11-04T23:54:48.117Z,99894.56
2022-11-04T23:57:37.387Z,99902.06
